DND weather

Dundee Airport
Dundee, Scotland, United Kingdom

Public forecast

Using degrees Celsius for public forecast. Weather courtesy of forecast.io.

METAR (pilot weather report)

Retrieved 2019/04/22 13:20 UTC (17 minutes ago):

EGPN 221320Z 10011KT 9000 NSC 17/08 Q1007

TAF (pilot weather forecast)

Forecast is more than 12 hours old.

Retrieved 2019/01/15 18:54 UTC (3 months ago):

TAF TAF EGPN 151750Z 1518/1621 CNL